sensor_id;sensor_type;location;lat;lon;timestamp;P1;P2;P0
55304;PMS7003;65692;51.378;19.824;2023-11-19T00:02:31;49.75;44.50;32.25
55304;PMS7003;65692;51.378;19.824;2023-11-19T00:05:03;52.00;45.00;30.00
55304;PMS7003;65692;51.378;19.824;2023-11-19T00:07:37;61.00;47.00;32.00
55304;PMS7003;65692;51.378;19.824;2023-11-19T00:10:15;70.75;53.00;34.50
55304;PMS7003;65692;51.378;19.824;2023-11-19T00:12:48;66.00;49.50;33.25
55304;PMS7003;65692;51.378;19.824;2023-11-19T00:15:19;73.00;57.00;34.50
55304;PMS7003;65692;51.378;19.824;2023-11-19T00:17:48;69.75;53.00;36.00
55304;PMS7003;65692;51.378;19.824;2023-11-19T00:20:26;84.00;57.25;37.00
55304;PMS7003;65692;51.378;19.824;2023-11-19T00:23:00;74.75;54.50;37.00
55304;PMS7003;65692;51.378;19.824;2023-11-19T00:25:40;76.25;56.50;38.00
55304;PMS7003;65692;51.378;19.824;2023-11-19T00:28:09;74.00;57.50;37.00
55304;PMS7003;65692;51.378;19.824;2023-11-19T00:30:37;69.00;53.50;34.00
55304;PMS7003;65692;51.378;19.824;2023-11-19T00:33:09;79.25;57.75;38.50
55304;PMS7003;65692;51.378;19.824;2023-11-19T00:35:40;71.00;51.00;36.00
55304;PMS7003;65692;51.378;19.824;2023-11-19T00:38:24;78.50;59.25;36.00
55304;PMS7003;65692;51.378;19.824;2023-11-19T00:41:02;75.00;54.25;33.00
55304;PMS7003;65692;51.378;19.824;2023-11-19T00:43:32;63.75;46.25;33.25
55304;PMS7003;65692;51.378;19.824;2023-11-19T00:46:07;83.00;55.25;33.75
55304;PMS7003;65692;51.378;19.824;2023-11-19T00:48:37;67.50;51.25;34.50
55304;PMS7003;65692;51.378;19.824;2023-11-19T00:51:11;57.25;44.00;30.00
55304;PMS7003;65692;51.378;19.824;2023-11-19T00:53:59;66.25;49.00;34.00
55304;PMS7003;65692;51.378;19.824;2023-11-19T00:56:34;65.50;45.50;31.75
55304;PMS7003;65692;51.378;19.824;2023-11-19T00:59:04;57.50;46.50;30.00
55304;PMS7003;65692;51.378;19.824;2023-11-19T01:01:36;65.25;48.50;32.50
55304;PMS7003;65692;51.378;19.824;2023-11-19T01:04:04;68.25;49.00;33.75
55304;PMS7003;65692;51.378;19.824;2023-11-19T01:06:35;53.00;42.75;30.00
55304;PMS7003;65692;51.378;19.824;2023-11-19T01:09:16;46.50;36.00;27.50
55304;PMS7003;65692;51.378;19.824;2023-11-19T01:11:58;55.50;47.50;33.00
55304;PMS7003;65692;51.378;19.824;2023-11-19T01:14:29;60.25;44.50;30.50
55304;PMS7003;65692;51.378;19.824;2023-11-19T01:16:58;67.50;48.25;33.75
55304;PMS7003;65692;51.378;19.824;2023-11-19T01:19:33;65.00;39.00;29.50
55304;PMS7003;65692;51.378;19.824;2023-11-19T01:22:04;45.25;40.50;29.00
55304;PMS7003;65692;51.378;19.824;2023-11-19T01:24:48;56.50;45.50;30.00
55304;PMS7003;65692;51.378;19.824;2023-11-19T08:38:30;42.67;37.67;26.33
55304;PMS7003;65692;51.378;19.824;2023-11-19T09:04:40;47.67;41.00;26.33
55304;PMS7003;65692;51.378;19.824;2023-11-19T09:07:08;44.00;34.33;22.33
55304;PMS7003;65692;51.378;19.824;2023-11-19T09:09:37;32.75;26.75;19.75
55304;PMS7003;65692;51.378;19.824;2023-11-19T09:27:12;37.75;30.25;17.50
55304;PMS7003;65692;51.378;19.824;2023-11-19T09:32:24;49.67;40.00;27.33
55304;PMS7003;65692;51.378;19.824;2023-11-19T09:34:51;47.00;38.00;26.33
55304;PMS7003;65692;51.378;19.824;2023-11-19T09:37:18;42.33;38.33;25.33
55304;PMS7003;65692;51.378;19.824;2023-11-19T09:39:48;37.00;33.00;25.00
55304;PMS7003;65692;51.378;19.824;2023-11-19T09:42:15;44.00;35.67;25.00
55304;PMS7003;65692;51.378;19.824;2023-11-19T09:44:42;43.00;37.33;25.00
55304;PMS7003;65692;51.378;19.824;2023-11-19T09:47:09;44.50;36.50;22.75
55304;PMS7003;65692;51.378;19.824;2023-11-19T09:49:37;48.00;35.33;22.67
55304;PMS7003;65692;51.378;19.824;2023-11-19T09:52:05;37.33;33.00;25.67
55304;PMS7003;65692;51.378;19.824;2023-11-19T09:54:31;30.67;30.67;24.67
55304;PMS7003;65692;51.378;19.824;2023-11-19T09:56:58;46.00;36.67;23.33
55304;PMS7003;65692;51.378;19.824;2023-11-19T09:59:29;35.00;25.00;13.67
55304;PMS7003;65692;51.378;19.824;2023-11-19T10:01:57;42.67;36.67;23.00
55304;PMS7003;65692;51.378;19.824;2023-11-19T10:04:26;38.50;30.75;19.75
55304;PMS7003;65692;51.378;19.824;2023-11-19T10:07:05;43.00;36.67;22.67
55304;PMS7003;65692;51.378;19.824;2023-11-19T10:09:31;29.00;25.75;20.50
55304;PMS7003;65692;51.378;19.824;2023-11-19T10:11:58;37.25;27.75;16.50
55304;PMS7003;65692;51.378;19.824;2023-11-19T10:14:25;41.75;29.00;19.50
55304;PMS7003;65692;51.378;19.824;2023-11-19T10:16:51;34.25;30.00;21.25
55304;PMS7003;65692;51.378;19.824;2023-11-19T10:22:11;37.25;33.00;22.75
55304;PMS7003;65692;51.378;19.824;2023-11-19T10:24:38;38.25;31.25;22.00
55304;PMS7003;65692;51.378;19.824;2023-11-19T10:27:14;46.33;40.33;25.67
55304;PMS7003;65692;51.378;19.824;2023-11-19T10:29:43;45.00;34.25;20.75
55304;PMS7003;65692;51.378;19.824;2023-11-19T10:32:12;42.00;38.33;25.00
55304;PMS7003;65692;51.378;19.824;2023-11-19T10:34:52;53.67;42.67;28.33
55304;PMS7003;65692;51.378;19.824;2023-11-19T10:37:28;35.50;29.75;22.00
55304;PMS7003;65692;51.378;19.824;2023-11-19T10:40:04;44.00;36.67;23.00
55304;PMS7003;65692;51.378;19.824;2023-11-19T10:42:37;50.33;42.00;26.33
55304;PMS7003;65692;51.378;19.824;2023-11-19T10:45:04;21.00;19.00;11.00
55304;PMS7003;65692;51.378;19.824;2023-11-19T10:47:30;38.00;30.50;21.50
55304;PMS7003;65692;51.378;19.824;2023-11-19T10:50:01;48.67;38.67;26.67
55304;PMS7003;65692;51.378;19.824;2023-11-19T10:52:27;35.00;28.00;18.00
55304;PMS7003;65692;51.378;19.824;2023-11-19T10:54:54;58.67;42.00;26.33
55304;PMS7003;65692;51.378;19.824;2023-11-19T10:57:23;40.00;34.00;24.00
55304;PMS7003;65692;51.378;19.824;2023-11-19T10:59:55;34.67;29.00;18.00
55304;PMS7003;65692;51.378;19.824;2023-11-19T11:02:24;40.00;32.25;25.00
55304;PMS7003;65692;51.378;19.824;2023-11-19T11:04:51;51.33;41.33;28.33
55304;PMS7003;65692;51.378;19.824;2023-11-19T11:07:19;57.00;46.75;31.00
55304;PMS7003;65692;51.378;19.824;2023-11-19T11:09:52;44.33;38.33;24.00
55304;PMS7003;65692;51.378;19.824;2023-11-19T11:12:21;44.00;36.67;24.67
55304;PMS7003;65692;51.378;19.824;2023-11-19T11:14:48;51.67;39.33;25.33
55304;PMS7003;65692;51.378;19.824;2023-11-19T11:17:17;46.33;37.00;23.67
55304;PMS7003;65692;51.378;19.824;2023-11-19T11:19:44;43.33;37.00;23.33
55304;PMS7003;65692;51.378;19.824;2023-11-19T11:22:11;57.50;41.25;27.75
55304;PMS7003;65692;51.378;19.824;2023-11-19T11:24:56;68.00;52.00;33.25
55304;PMS7003;65692;51.378;19.824;2023-11-19T11:27:48;51.67;40.33;28.00
55304;PMS7003;65692;51.378;19.824;2023-11-19T11:33:00;43.00;38.33;27.00
55304;PMS7003;65692;51.378;19.824;2023-11-19T11:38:10;42.67;38.33;25.67
55304;PMS7003;65692;51.378;19.824;2023-11-19T11:40:37;40.67;35.00;23.00
55304;PMS7003;65692;51.378;19.824;2023-11-19T11:43:03;30.50;22.00;15.50
55304;PMS7003;65692;51.378;19.824;2023-11-19T11:45:38;49.00;40.33;26.67
55304;PMS7003;65692;51.378;19.824;2023-11-19T11:48:06;27.67;27.67;22.00
55304;PMS7003;65692;51.378;19.824;2023-11-19T11:50:35;35.67;30.33;23.00
55304;PMS7003;65692;51.378;19.824;2023-11-19T11:56:07;28.00;23.50;17.50
55304;PMS7003;65692;51.378;19.824;2023-11-19T11:58:29;56.33;42.33;26.67
55304;PMS7003;65692;51.378;19.824;2023-11-19T12:01:36;33.75;29.50;20.00
55304;PMS7003;65692;51.378;19.824;2023-11-19T12:04:04;52.33;39.00;26.00
55304;PMS7003;65692;51.378;19.824;2023-11-19T12:06:32;62.50;49.00;28.00
55304;PMS7003;65692;51.378;19.824;2023-11-19T12:08:59;78.25;58.50;35.00
55304;PMS7003;65692;51.378;19.824;2023-11-19T12:11:26;70.00;52.50;34.75
55304;PMS7003;65692;51.378;19.824;2023-11-19T12:13:56;64.50;48.25;29.75
55304;PMS7003;65692;51.378;19.824;2023-11-19T12:16:26;53.33;40.00;26.33
55304;PMS7003;65692;51.378;19.824;2023-11-19T12:19:12;61.33;44.00;26.67
55304;PMS7003;65692;51.378;19.824;2023-11-19T12:21:39;41.33;37.00;21.67
55304;PMS7003;65692;51.378;19.824;2023-11-19T12:24:06;42.67;38.00;24.00
55304;PMS7003;65692;51.378;19.824;2023-11-19T12:26:35;48.00;40.00;26.33
55304;PMS7003;65692;51.378;19.824;2023-11-19T12:29:02;48.33;37.67;25.67
55304;PMS7003;65692;51.378;19.824;2023-11-19T12:31:34;61.75;45.75;29.00
55304;PMS7003;65692;51.378;19.824;2023-11-19T12:36:53;65.00;51.00;30.25
55304;PMS7003;65692;51.378;19.824;2023-11-19T12:39:20;68.25;50.00;31.25
55304;PMS7003;65692;51.378;19.824;2023-11-19T12:44:37;48.50;38.25;25.00
55304;PMS7003;65692;51.378;19.824;2023-11-19T12:47:04;53.00;43.00;28.00
55304;PMS7003;65692;51.378;19.824;2023-11-19T12:52:15;55.50;44.25;31.50
55304;PMS7003;65692;51.378;19.824;2023-11-19T12:57:41;76.25;53.25;34.00
55304;PMS7003;65692;51.378;19.824;2023-11-19T13:02:52;66.00;49.50;35.00
55304;PMS7003;65692;51.378;19.824;2023-11-19T13:11:38;70.00;54.25;35.00
